Terminal Aerodrome Forecast
Issued by NWS Blacksburg, VA

Current Version | Previous Version | Graphics & Text | Print | Product List | Glossary On
Versions: 1 2 3 4 5 6 7 8 9 10 11 12 13 14 15 16 17 18 19 20 21 22 23 24 25 26 27 28 29 30 31 32 33 34 35 36 37 38 39 40 41 42 43
000
FTUS41 KRNK 011626 AAA
TAFBLF
TAF AMD
KBLF 011626Z 0116/0212 00000KT P6SM VCTS BKN035CB
     FM011800 21007KT 3SM TSRA BR OVC040CB
     FM012200 22007KT 5SM -SHRA VCTS SCT015 BKN035CB
     FM020300 26004KT 6SM -SHRA SCT005 OVC015
     FM020900 27003KT 1SM BR BKN004=

USA.gov is the U.S. government's official web portal to all federal, state and local government web resources and services.